createdAt,value
2022-12-04T00:01:53.442Z,24.60
2022-12-04T00:04:21.844Z,22.83
2022-12-04T00:06:54.128Z,21.53
2022-12-04T00:09:28.253Z,23.40
2022-12-04T00:11:56.572Z,19.93
2022-12-04T00:14:24.893Z,22.33
2022-12-04T00:16:53.272Z,23.73
2022-12-04T00:19:22.933Z,22.23
2022-12-04T00:21:53.522Z,21.90
2022-12-04T00:24:23.520Z,21.97
2022-12-04T00:27:13.332Z,23.03
2022-12-04T00:30:02.812Z,21.13
2022-12-04T00:32:32.588Z,27.07
2022-12-04T00:35:00.901Z,28.40
2022-12-04T00:37:29.181Z,23.50
2022-12-04T00:39:58.916Z,21.17
2022-12-04T00:42:28.866Z,22.40
2022-12-04T00:44:57.005Z,23.03
2022-12-04T00:47:26.522Z,21.20
2022-12-04T00:49:55.112Z,23.50
2022-12-04T00:52:23.998Z,21.17
2022-12-04T00:54:52.556Z,23.33
2022-12-04T00:57:20.926Z,18.23
2022-12-04T00:59:51.889Z,19.83
2022-12-04T01:02:20.492Z,21.57
2022-12-04T01:04:48.882Z,22.13
2022-12-04T01:07:17.378Z,21.67
2022-12-04T01:09:45.954Z,23.13
2022-12-04T01:12:20.407Z,19.93
2022-12-04T01:14:55.237Z,18.30
2022-12-04T01:17:24.567Z,22.80
2022-12-04T01:19:53.721Z,21.57
2022-12-04T01:22:22.314Z,19.83
2022-12-04T01:24:50.625Z,21.07
2022-12-04T01:27:46.641Z,20.10
2022-12-04T01:30:27.496Z,20.10
2022-12-04T01:32:55.756Z,20.70
2022-12-04T01:35:23.995Z,19.40
2022-12-04T01:37:52.259Z,18.43
2022-12-04T01:40:20.618Z,19.70
2022-12-04T01:42:48.822Z,20.77
2022-12-04T01:45:39.736Z,20.57
2022-12-04T01:48:18.103Z,20.57
2022-12-04T01:50:49.927Z,20.87
2022-12-04T01:53:19.166Z,19.87
2022-12-04T01:55:49.321Z,19.77
2022-12-04T01:58:20.585Z,17.53
2022-12-04T02:00:58.239Z,17.20
2022-12-04T02:03:26.785Z,16.80
2022-12-04T02:05:56.349Z,20.07
2022-12-04T02:08:25.058Z,23.47
2022-12-04T02:11:16.272Z,18.33
2022-12-04T02:13:55.882Z,18.97
2022-12-04T02:16:32.761Z,16.73
2022-12-04T02:19:09.025Z,19.07
2022-12-04T02:21:40.144Z,18.00
2022-12-04T02:24:33.156Z,18.97
2022-12-04T02:27:04.620Z,18.03
2022-12-04T02:30:14.284Z,16.17
2022-12-04T02:33:34.362Z,15.43
2022-12-04T02:36:10.915Z,21.17
2022-12-04T02:38:43.152Z,19.03
2022-12-04T02:41:14.650Z,16.20
2022-12-04T02:43:48.194Z,18.67
2022-12-04T02:46:26.369Z,17.90
2022-12-04T02:48:59.902Z,18.50
2022-12-04T02:51:34.451Z,17.30
2022-12-04T02:54:09.442Z,19.63
2022-12-04T02:57:21.791Z,20.33
2022-12-04T02:59:51.972Z,17.50
2022-12-04T03:02:26.691Z,16.03
2022-12-04T03:08:56.223Z,17.43
2022-12-04T03:11:52.978Z,16.83
2022-12-04T03:14:26.554Z,16.87
2022-12-04T03:17:10.234Z,17.97
2022-12-04T03:20:15.220Z,18.30
2022-12-04T03:22:51.578Z,16.07
2022-12-04T03:25:22.209Z,16.80
2022-12-04T03:27:58.776Z,15.93
2022-12-04T03:30:27.550Z,17.40
2022-12-04T03:33:01.284Z,17.30
2022-12-04T03:35:35.431Z,17.47
2022-12-04T03:38:08.398Z,15.83
2022-12-04T03:40:39.915Z,16.70
2022-12-04T03:43:14.801Z,17.37
2022-12-04T03:45:55.786Z,16.97
2022-12-04T03:48:27.582Z,15.77
2022-12-04T03:51:05.863Z,16.60
2022-12-04T03:53:40.751Z,17.77
2022-12-04T03:56:17.031Z,15.90
2022-12-04T03:58:49.958Z,18.67
2022-12-04T04:01:25.361Z,16.83
2022-12-04T04:03:59.474Z,16.17
2022-12-04T04:06:43.509Z,18.20
2022-12-04T04:09:19.651Z,18.03
2022-12-04T04:11:55.332Z,19.83
2022-12-04T04:14:51.018Z,15.60
2022-12-04T04:17:43.796Z,17.77
2022-12-04T04:20:35.281Z,18.30
2022-12-04T04:23:25.915Z,18.10
2022-12-04T04:25:56.029Z,16.53
2022-12-04T04:28:33.532Z,20.70
2022-12-04T04:31:11.197Z,20.70
2022-12-04T04:33:49.563Z,16.73
2022-12-04T04:36:27.171Z,18.93
2022-12-04T04:39:03.743Z,18.13
2022-12-04T04:45:04.792Z,16.27
2022-12-04T04:47:39.626Z,18.50
2022-12-04T04:50:13.327Z,20.23
2022-12-04T04:52:48.432Z,18.37
2022-12-04T04:55:20.991Z,22.53
2022-12-04T04:57:51.308Z,23.03
2022-12-04T05:00:25.966Z,19.93
2022-12-04T05:02:55.939Z,19.90
2022-12-04T05:05:26.191Z,19.90
2022-12-04T05:07:56.885Z,16.83
2022-12-04T05:10:26.682Z,20.27
2022-12-04T05:12:54.893Z,17.87
2022-12-04T05:15:32.704Z,18.37
2022-12-04T05:18:01.469Z,18.57
2022-12-04T05:20:39.521Z,20.63
2022-12-04T05:23:10.438Z,19.03
2022-12-04T05:25:40.133Z,19.63
2022-12-04T05:28:08.366Z,20.07
2022-12-04T05:30:36.605Z,18.10
2022-12-04T05:33:05.106Z,17.97
2022-12-04T05:35:37.350Z,16.80
2022-12-04T05:38:05.618Z,19.97
2022-12-04T05:40:35.594Z,17.53
2022-12-04T05:43:21.214Z,21.53
2022-12-04T05:45:52.346Z,19.87
2022-12-04T05:48:22.199Z,20.30
2022-12-04T05:50:50.611Z,22.07
2022-12-04T05:53:18.724Z,20.47
2022-12-04T05:55:55.203Z,20.47
2022-12-04T05:58:26.226Z,20.20
2022-12-04T06:00:54.502Z,18.67
2022-12-04T06:03:24.162Z,18.80
2022-12-04T06:09:13.004Z,22.67
2022-12-04T06:11:45.015Z,19.93
2022-12-04T06:14:17.179Z,22.53
2022-12-04T06:16:48.420Z,19.73
2022-12-04T06:19:20.576Z,20.87
2022-12-04T06:21:53.113Z,18.97
2022-12-04T06:24:24.047Z,22.40
2022-12-04T06:27:26.058Z,25.33
2022-12-04T06:29:48.219Z,21.63
2022-12-04T06:32:21.810Z,24.50
2022-12-04T06:34:53.767Z,24.40
2022-12-04T06:37:24.602Z,20.07
2022-12-04T06:39:54.363Z,22.27
2022-12-04T06:42:25.100Z,28.17
2022-12-04T06:44:54.889Z,23.00
2022-12-04T06:47:23.082Z,26.87
2022-12-04T06:49:52.302Z,22.93
2022-12-04T06:52:21.966Z,23.17
2022-12-04T06:55:02.884Z,27.50
2022-12-04T06:57:32.405Z,23.20
2022-12-04T07:00:05.727Z,27.23
2022-12-04T07:02:34.433Z,23.63
2022-12-04T07:05:18.019Z,24.27
2022-12-04T07:07:49.788Z,21.03
2022-12-04T07:10:21.442Z,24.73
2022-12-04T07:12:55.354Z,24.23
2022-12-04T07:15:26.464Z,27.03
2022-12-04T07:17:56.321Z,26.20
2022-12-04T07:20:24.553Z,24.77
2022-12-04T07:22:53.107Z,25.00
2022-12-04T07:25:22.523Z,24.93
2022-12-04T07:27:53.637Z,26.87
2022-12-04T07:30:22.131Z,25.23
2022-12-04T07:32:52.257Z,27.87
2022-12-04T07:35:21.725Z,27.03
2022-12-04T07:37:57.630Z,28.10
2022-12-04T07:40:27.180Z,22.77
2022-12-04T07:42:57.835Z,22.97
2022-12-04T07:45:29.210Z,23.87
2022-12-04T07:47:59.072Z,24.37
2022-12-04T07:50:27.398Z,24.43
2022-12-04T07:52:57.210Z,21.57
2022-12-04T07:55:25.652Z,24.33
2022-12-04T07:57:53.900Z,22.27
2022-12-04T08:00:23.647Z,26.30
2022-12-04T08:02:53.796Z,19.90
2022-12-04T08:05:25.844Z,20.27
2022-12-04T08:07:54.567Z,21.97
2022-12-04T08:10:24.161Z,21.37
2022-12-04T08:12:54.276Z,21.53
2022-12-04T08:15:22.999Z,19.73
2022-12-04T08:17:54.731Z,24.87
2022-12-04T08:20:26.443Z,21.23
2022-12-04T08:22:56.745Z,19.47
2022-12-04T08:25:25.327Z,22.43
2022-12-04T08:27:52.625Z,21.53
2022-12-04T08:30:24.507Z,24.47
2022-12-04T08:32:54.189Z,24.70
2022-12-04T08:35:25.108Z,21.00
2022-12-04T08:38:24.744Z,20.13
2022-12-04T08:41:59.011Z,20.80
2022-12-04T08:44:36.430Z,21.60
2022-12-04T08:47:06.147Z,22.63
2022-12-04T08:49:35.583Z,19.07
2022-12-04T08:54:56.172Z,20.70
2022-12-04T08:57:30.863Z,18.37
2022-12-04T09:00:11.651Z,20.27
2022-12-04T09:02:51.546Z,20.07
2022-12-04T09:05:20.692Z,18.27
2022-12-04T09:07:54.595Z,21.03
2022-12-04T09:10:25.517Z,17.50
2022-12-04T09:12:55.133Z,20.27
2022-12-04T09:15:24.106Z,17.90
2022-12-04T09:17:53.242Z,17.57
2022-12-04T09:20:23.276Z,17.47
2022-12-04T09:23:04.798Z,20.37
2022-12-04T09:25:35.821Z,16.23
2022-12-04T09:28:05.889Z,17.50
2022-12-04T09:30:34.299Z,15.67
2022-12-04T09:33:05.397Z,18.30
2022-12-04T09:35:35.812Z,18.13
2022-12-04T09:38:05.952Z,16.30
2022-12-04T09:40:44.362Z,17.27
2022-12-04T09:43:27.707Z,19.67
2022-12-04T09:46:03.652Z,14.67
2022-12-04T09:48:37.269Z,15.63
2022-12-04T09:51:19.248Z,15.40
2022-12-04T09:53:58.039Z,16.40
2022-12-04T09:56:30.903Z,16.93
2022-12-04T09:59:07.213Z,17.97
2022-12-04T10:01:45.109Z,16.43
2022-12-04T10:04:17.922Z,15.00
2022-12-04T10:06:52.616Z,16.70
2022-12-04T10:10:12.861Z,16.23
2022-12-04T10:12:54.305Z,16.80
2022-12-04T10:15:32.117Z,15.67
2022-12-04T10:18:29.353Z,17.73
2022-12-04T10:21:27.761Z,19.60
2022-12-04T10:24:10.798Z,19.33
2022-12-04T10:26:55.642Z,21.50
2022-12-04T10:29:38.822Z,17.60
2022-12-04T10:32:18.928Z,18.20
2022-12-04T10:34:54.872Z,20.17
2022-12-04T10:37:38.553Z,19.50
2022-12-04T10:40:29.707Z,20.07
2022-12-04T10:43:19.406Z,19.60
2022-12-04T10:45:48.105Z,17.80
2022-12-04T10:48:24.289Z,16.43
2022-12-04T10:50:54.922Z,16.93
2022-12-04T10:53:30.836Z,17.53
2022-12-04T10:56:10.601Z,16.87
2022-12-04T10:58:40.366Z,18.30
2022-12-04T11:01:13.672Z,20.10
2022-12-04T11:03:45.844Z,17.27
2022-12-04T11:06:16.016Z,18.40
2022-12-04T11:08:50.477Z,19.40
2022-12-04T11:11:27.268Z,20.33
2022-12-04T11:14:14.789Z,16.87
2022-12-04T11:16:45.849Z,16.17
2022-12-04T11:19:23.146Z,17.67
2022-12-04T11:21:53.035Z,21.17
2022-12-04T11:24:30.869Z,16.33
2022-12-04T11:27:10.683Z,19.37
2022-12-04T11:29:46.206Z,20.00
2022-12-04T11:32:26.639Z,19.27
2022-12-04T11:34:58.322Z,19.53
2022-12-04T11:41:16.666Z,18.73
2022-12-04T11:43:54.124Z,21.17
2022-12-04T11:46:31.685Z,19.43
2022-12-04T11:49:00.840Z,19.33
2022-12-04T11:51:42.394Z,20.73
2022-12-04T11:54:36.818Z,21.10
2022-12-04T11:57:51.276Z,18.17
2022-12-04T12:00:22.704Z,20.03
2022-12-04T12:03:15.064Z,19.40
2022-12-04T12:06:10.920Z,19.80
2022-12-04T12:09:01.260Z,18.73
2022-12-04T12:11:36.458Z,17.90
2022-12-04T12:14:14.467Z,18.20
2022-12-04T12:16:56.364Z,20.63
2022-12-04T12:19:44.967Z,17.77
2022-12-04T12:22:26.243Z,19.30
2022-12-04T12:25:03.950Z,20.80
2022-12-04T12:27:47.565Z,19.50
2022-12-04T12:30:21.575Z,18.37
2022-12-04T12:33:06.682Z,19.03
2022-12-04T12:35:45.986Z,84.77
2022-12-04T12:38:19.597Z,21.03
2022-12-04T12:40:52.209Z,21.67
2022-12-04T12:43:27.635Z,20.30
2022-12-04T12:46:27.346Z,18.93
2022-12-04T12:52:18.890Z,17.17
2022-12-04T12:54:53.566Z,20.50
2022-12-04T12:57:29.424Z,19.20
2022-12-04T13:00:04.858Z,23.67
2022-12-04T13:02:38.017Z,20.20
2022-12-04T13:05:15.075Z,18.97
2022-12-04T13:07:50.881Z,23.97
2022-12-04T13:10:24.254Z,22.97
2022-12-04T13:13:03.833Z,27.00
2022-12-04T13:15:42.281Z,19.37
2022-12-04T13:18:32.254Z,23.87
2022-12-04T13:21:10.316Z,26.57
2022-12-04T13:23:55.206Z,22.87
2022-12-04T13:26:38.531Z,25.57
2022-12-04T13:29:18.290Z,21.80
2022-12-04T13:31:59.210Z,20.60
2022-12-04T13:34:51.725Z,21.23
2022-12-04T13:37:57.299Z,25.80
2022-12-04T13:40:37.527Z,23.63
2022-12-04T13:43:29.361Z,23.27
2022-12-04T13:46:03.028Z,23.03
2022-12-04T13:48:37.996Z,25.07
2022-12-04T13:51:22.994Z,26.17
2022-12-04T13:54:25.204Z,24.57
2022-12-04T13:57:23.989Z,21.27
2022-12-04T14:03:04.425Z,23.07
2022-12-04T14:05:45.970Z,24.47
2022-12-04T14:08:26.201Z,18.10
2022-12-04T14:11:16.248Z,21.37
2022-12-04T14:13:49.614Z,23.33
2022-12-04T14:16:29.180Z,28.80
2022-12-04T14:18:59.837Z,25.57
2022-12-04T14:21:40.614Z,20.97
2022-12-04T14:24:19.592Z,22.17
2022-12-04T14:27:11.974Z,25.10
2022-12-04T14:33:02.211Z,26.67
2022-12-04T14:35:34.772Z,20.37
2022-12-04T14:38:07.655Z,21.53
2022-12-04T14:40:43.913Z,23.10
2022-12-04T14:43:23.314Z,26.10
2022-12-04T14:46:02.074Z,23.80
2022-12-04T14:48:50.829Z,25.37
2022-12-04T14:51:36.403Z,27.17
2022-12-04T14:58:19.994Z,29.10
2022-12-04T15:00:54.577Z,28.07
2022-12-04T15:03:27.654Z,27.57
2022-12-04T15:06:03.948Z,29.67
2022-12-04T15:08:38.065Z,29.53
2022-12-04T15:11:27.242Z,25.70
2022-12-04T15:14:42.140Z,32.10
2022-12-04T15:17:22.029Z,33.47
2022-12-04T15:22:26.739Z,27.97
2022-12-04T15:24:59.528Z,29.53
2022-12-04T15:27:32.684Z,29.53
2022-12-04T15:30:07.644Z,27.97
2022-12-04T15:32:46.119Z,31.80
2022-12-04T15:35:50.877Z,30.83
2022-12-04T15:42:05.083Z,29.43
2022-12-04T15:45:17.458Z,32.40
2022-12-04T15:48:47.795Z,42.30
2022-12-04T15:51:52.076Z,31.83
2022-12-04T15:54:25.186Z,35.40
2022-12-04T15:57:16.369Z,34.17
2022-12-04T15:59:54.586Z,32.47
2022-12-04T16:02:51.956Z,39.23
2022-12-04T16:05:47.140Z,29.90
2022-12-04T16:09:03.781Z,34.23
2022-12-04T16:11:44.125Z,51.43
2022-12-04T16:14:21.548Z,54.13
2022-12-04T16:17:00.053Z,30.07
2022-12-04T16:19:35.713Z,41.87
2022-12-04T16:22:20.272Z,30.87
2022-12-04T16:24:57.348Z,32.90
2022-12-04T16:27:42.626Z,34.77
2022-12-04T16:30:48.156Z,36.53
2022-12-04T16:33:45.721Z,29.87
2022-12-04T16:36:45.565Z,32.67
2022-12-04T16:39:30.902Z,107.97
2022-12-04T16:46:00.719Z,45.23
2022-12-04T16:48:34.970Z,44.47
2022-12-04T16:51:05.004Z,27.63
2022-12-04T16:53:38.997Z,30.10
2022-12-04T16:56:09.789Z,30.40
2022-12-04T16:58:45.634Z,29.90
2022-12-04T17:04:18.882Z,29.90
2022-12-04T17:06:58.419Z,29.40
2022-12-04T17:09:38.990Z,31.00
2022-12-04T17:12:30.627Z,36.60
2022-12-04T17:15:04.151Z,41.77
2022-12-04T17:17:33.089Z,31.67
2022-12-04T17:20:14.725Z,32.77
2022-12-04T17:22:47.006Z,26.97
2022-12-04T17:25:37.658Z,36.43
2022-12-04T17:28:06.471Z,30.87
2022-12-04T17:30:50.284Z,27.93
2022-12-04T17:34:15.635Z,29.40
2022-12-04T17:36:45.642Z,32.40
2022-12-04T17:39:13.963Z,34.80
2022-12-04T17:41:42.741Z,32.03
2022-12-04T17:44:14.573Z,31.40
2022-12-04T17:46:47.049Z,51.20
2022-12-04T17:49:15.628Z,32.53
2022-12-04T17:51:45.483Z,35.47
2022-12-04T17:54:16.688Z,32.13
2022-12-04T17:56:49.563Z,33.97
2022-12-04T17:59:23.404Z,29.43
2022-12-04T18:02:21.801Z,29.87
2022-12-04T18:07:28.502Z,30.60
2022-12-04T18:10:00.238Z,30.80
2022-12-04T18:12:30.124Z,31.80
2022-12-04T18:15:02.836Z,29.37
2022-12-04T18:17:33.239Z,36.70
2022-12-04T18:20:05.458Z,35.30
2022-12-04T18:22:52.200Z,32.23
2022-12-04T18:25:49.800Z,32.13
2022-12-04T18:28:42.617Z,40.43
2022-12-04T18:31:32.512Z,32.47
2022-12-04T18:34:32.851Z,30.07
2022-12-04T18:37:19.418Z,35.13
2022-12-04T18:40:01.118Z,31.77
2022-12-04T18:42:36.284Z,34.93
2022-12-04T18:45:07.961Z,30.80
2022-12-04T18:47:39.468Z,32.20
2022-12-04T18:50:09.428Z,33.07
2022-12-04T18:52:43.256Z,32.77
2022-12-04T18:55:28.794Z,34.77
2022-12-04T18:57:59.069Z,31.07
2022-12-04T19:00:44.874Z,32.47
2022-12-04T19:03:13.728Z,34.70
2022-12-04T19:05:50.670Z,54.40
2022-12-04T19:08:19.395Z,34.27
2022-12-04T19:10:51.374Z,35.47
2022-12-04T19:13:21.819Z,36.70
2022-12-04T19:15:56.750Z,36.27
2022-12-04T19:18:26.578Z,34.77
2022-12-04T19:20:56.630Z,37.83
2022-12-04T19:23:26.644Z,32.90
2022-12-04T19:26:04.633Z,32.93
2022-12-04T19:28:34.785Z,38.57
2022-12-04T19:31:05.027Z,32.20
2022-12-04T19:33:33.371Z,35.13
2022-12-04T19:36:03.792Z,40.53
2022-12-04T19:38:33.553Z,38.57
2022-12-04T19:41:14.421Z,33.93
2022-12-04T19:43:47.557Z,31.40
2022-12-04T19:46:23.073Z,32.73
2022-12-04T19:48:55.380Z,37.90
2022-12-04T19:51:25.510Z,33.90
2022-12-04T19:53:55.898Z,32.57
2022-12-04T19:56:28.701Z,34.47
2022-12-04T20:02:42.779Z,34.03
2022-12-04T20:05:11.957Z,34.37
2022-12-04T20:07:54.079Z,43.60
2022-12-04T20:10:26.522Z,36.10
2022-12-04T20:13:01.075Z,33.77
2022-12-04T20:15:32.553Z,38.77
2022-12-04T20:18:02.088Z,34.17
2022-12-04T20:20:30.529Z,35.27
2022-12-04T20:23:01.522Z,32.87
2022-12-04T20:25:29.863Z,39.67
2022-12-04T20:28:10.207Z,36.80
2022-12-04T20:33:17.451Z,33.03
2022-12-04T20:35:46.164Z,35.63
2022-12-04T20:38:16.128Z,35.03
2022-12-04T20:40:47.296Z,33.07
2022-12-04T20:43:19.958Z,33.23
2022-12-04T20:45:51.987Z,32.33
2022-12-04T20:48:20.459Z,30.97
2022-12-04T20:54:41.249Z,34.03
2022-12-04T20:57:20.171Z,29.57
2022-12-04T20:59:50.115Z,28.97
2022-12-04T21:02:32.439Z,31.00
2022-12-04T21:05:16.717Z,37.40
2022-12-04T21:07:46.324Z,39.13
2022-12-04T21:10:14.654Z,37.03
2022-12-04T21:13:03.392Z,34.17
2022-12-04T21:15:54.499Z,32.90
2022-12-04T21:18:23.165Z,36.67
2022-12-04T21:20:56.719Z,35.50
2022-12-04T21:24:04.299Z,36.80
2022-12-04T21:26:33.850Z,32.00
2022-12-04T21:29:03.111Z,30.03
2022-12-04T21:31:35.721Z,33.10
2022-12-04T21:34:44.685Z,28.00
2022-12-04T21:40:42.473Z,33.53
2022-12-04T21:43:11.878Z,33.73
2022-12-04T21:45:41.975Z,27.23
2022-12-04T21:48:13.471Z,32.23
2022-12-04T21:50:43.439Z,31.30
2022-12-04T21:53:14.447Z,29.73
2022-12-04T21:55:51.909Z,28.50
2022-12-04T21:58:21.835Z,29.27
2022-12-04T22:01:04.735Z,28.43
2022-12-04T22:07:04.901Z,28.87
2022-12-04T22:09:33.708Z,30.20
2022-12-04T22:12:04.231Z,28.97
2022-12-04T22:14:43.244Z,28.20
2022-12-04T22:17:11.579Z,25.43
2022-12-04T22:19:40.354Z,24.67
2022-12-04T22:22:24.190Z,30.13
2022-12-04T22:27:42.097Z,28.30
2022-12-04T22:30:31.477Z,28.30
2022-12-04T22:33:17.633Z,26.40
2022-12-04T22:35:52.166Z,25.33
2022-12-04T22:38:52.624Z,26.83
2022-12-04T22:41:29.061Z,23.47
2022-12-04T22:44:00.778Z,28.43
2022-12-04T22:46:30.915Z,26.10
2022-12-04T22:49:02.891Z,25.83
2022-12-04T22:51:31.603Z,26.27
2022-12-04T22:54:15.940Z,26.73
2022-12-04T22:56:47.620Z,28.90
2022-12-04T22:59:16.341Z,29.17
2022-12-04T23:01:48.897Z,27.13
2022-12-04T23:04:20.361Z,25.73
2022-12-04T23:09:19.882Z,27.17
2022-12-04T23:11:52.441Z,26.10
2022-12-04T23:14:21.045Z,27.80
2022-12-04T23:16:49.718Z,26.47
2022-12-04T23:19:20.264Z,27.73
2022-12-04T23:21:56.402Z,33.10
2022-12-04T23:24:26.951Z,23.70
2022-12-04T23:26:55.390Z,25.63
2022-12-04T23:29:51.286Z,27.03
2022-12-04T23:32:12.059Z,24.17
2022-12-04T23:34:40.665Z,22.60
2022-12-04T23:37:15.336Z,24.93
2022-12-04T23:39:47.512Z,22.33
2022-12-04T23:42:18.922Z,23.03
2022-12-04T23:44:47.404Z,25.83
2022-12-04T23:47:15.778Z,23.70
2022-12-04T23:49:48.161Z,27.20
2022-12-04T23:52:19.272Z,23.10
2022-12-04T23:54:49.665Z,20.33
2022-12-04T23:57:17.897Z,23.67
2022-12-04T23:59:56.408Z,22.37
